sensor_id;sensor_type;location;lat;lon;timestamp;pressure;altitude;pressure_sealevel;temperature;humidity
59009;BME280;44794;42.652;23.318;2022-09-09T00:04:26;94740.09;;;16.15;86.68
59009;BME280;44794;42.652;23.318;2022-09-09T00:13:01;94740.97;;;16.06;86.64
59009;BME280;44794;42.652;23.318;2022-09-09T00:15:30;94737.38;;;16.07;86.55
59009;BME280;44794;42.652;23.318;2022-09-09T00:18:10;94748.53;;;16.09;86.58
59009;BME280;44794;42.652;23.318;2022-09-09T00:21:03;94733.66;;;16.09;86.88
59009;BME280;44794;42.652;23.318;2022-09-09T00:23:46;94729.53;;;15.97;86.99
59009;BME280;44794;42.652;23.318;2022-09-09T00:26:35;94724.88;;;15.91;87.21
59009;BME280;44794;42.652;23.318;2022-09-09T00:31:38;94716.06;;;15.83;87.51
59009;BME280;44794;42.652;23.318;2022-09-09T00:34:22;94713.31;;;15.84;87.56
59009;BME280;44794;42.652;23.318;2022-09-09T00:36:50;94711.25;;;15.78;87.78
59009;BME280;44794;42.652;23.318;2022-09-09T00:39:38;94697.34;;;15.69;87.42
59009;BME280;44794;42.652;23.318;2022-09-09T00:44:38;94692.97;;;15.60;87.93
59009;BME280;44794;42.652;23.318;2022-09-09T00:53:15;94692.13;;;15.50;88.32
59009;BME280;44794;42.652;23.318;2022-09-09T00:55:45;94692.44;;;15.47;88.63
59009;BME280;44794;42.652;23.318;2022-09-09T00:58:13;94701.25;;;15.46;88.42
59009;BME280;44794;42.652;23.318;2022-09-09T01:00:44;94694.22;;;15.46;88.50
59009;BME280;44794;42.652;23.318;2022-09-09T01:06:25;94692.84;;;15.52;88.69
59009;BME280;44794;42.652;23.318;2022-09-09T01:11:25;94691.72;;;15.64;88.36
59009;BME280;44794;42.652;23.318;2022-09-09T01:14:14;94713.34;;;15.66;87.68
59009;BME280;44794;42.652;23.318;2022-09-09T01:16:44;94698.34;;;15.68;88.18
59009;BME280;44794;42.652;23.318;2022-09-09T01:19:17;94699.84;;;15.70;87.84
59009;BME280;44794;42.652;23.318;2022-09-09T01:22:00;94704.78;;;15.73;87.65
59009;BME280;44794;42.652;23.318;2022-09-09T01:24:40;94700.09;;;15.67;88.25
59009;BME280;44794;42.652;23.318;2022-09-09T01:27:09;94698.75;;;15.63;88.24
59009;BME280;44794;42.652;23.318;2022-09-09T01:29:35;94692.66;;;15.63;88.23
59009;BME280;44794;42.652;23.318;2022-09-09T01:35:03;94693.50;;;15.63;88.06
59009;BME280;44794;42.652;23.318;2022-09-09T01:37:29;94707.56;;;15.62;88.12
59009;BME280;44794;42.652;23.318;2022-09-09T01:39:54;94710.34;;;15.61;88.33
59009;BME280;44794;42.652;23.318;2022-09-09T01:42:19;94713.06;;;15.59;88.44
59009;BME280;44794;42.652;23.318;2022-09-09T01:44:45;94707.03;;;15.59;88.33
59009;BME280;44794;42.652;23.318;2022-09-09T01:47:10;94719.41;;;15.57;88.31
59009;BME280;44794;42.652;23.318;2022-09-09T01:49:36;94712.53;;;15.56;88.39
59009;BME280;44794;42.652;23.318;2022-09-09T01:52:02;94723.00;;;15.56;88.40
59009;BME280;44794;42.652;23.318;2022-09-09T01:54:30;94722.72;;;15.59;88.40
59009;BME280;44794;42.652;23.318;2022-09-09T02:04:40;94715.84;;;15.58;88.35
59009;BME280;44794;42.652;23.318;2022-09-09T02:07:19;94716.66;;;15.58;88.56
59009;BME280;44794;42.652;23.318;2022-09-09T02:09:51;94720.94;;;15.59;88.43
59009;BME280;44794;42.652;23.318;2022-09-09T02:12:23;94719.81;;;15.62;88.35
59009;BME280;44794;42.652;23.318;2022-09-09T02:14:55;94707.03;;;15.59;88.44
59009;BME280;44794;42.652;23.318;2022-09-09T02:17:27;94697.88;;;15.81;87.82
59009;BME280;44794;42.652;23.318;2022-09-09T02:20:12;94700.66;;;15.71;87.46
59009;BME280;44794;42.652;23.318;2022-09-09T02:22:40;94693.94;;;15.59;87.86
59009;BME280;44794;42.652;23.318;2022-09-09T02:25:10;94700.69;;;15.52;88.16
59009;BME280;44794;42.652;23.318;2022-09-09T02:27:38;94698.34;;;15.49;88.68
59009;BME280;44794;42.652;23.318;2022-09-09T02:30:04;94701.09;;;15.47;88.99
59009;BME280;44794;42.652;23.318;2022-09-09T02:32:32;94695.72;;;15.49;89.04
59009;BME280;44794;42.652;23.318;2022-09-09T02:35:04;94707.03;;;15.49;89.33
59009;BME280;44794;42.652;23.318;2022-09-09T02:37:35;94700.97;;;15.49;89.13
59009;BME280;44794;42.652;23.318;2022-09-09T02:40:04;94712.28;;;15.49;89.20
59009;BME280;44794;42.652;23.318;2022-09-09T02:42:31;94713.38;;;15.47;89.01
59009;BME280;44794;42.652;23.318;2022-09-09T02:44:57;94718.31;;;15.50;89.31
59009;BME280;44794;42.652;23.318;2022-09-09T02:47:38;94717.50;;;15.49;88.84
59009;BME280;44794;42.652;23.318;2022-09-09T02:50:17;94723.16;;;15.45;88.82
59009;BME280;44794;42.652;23.318;2022-09-09T02:55:41;94723.41;;;15.42;89.22
59009;BME280;44794;42.652;23.318;2022-09-09T02:58:13;94721.75;;;15.41;88.90
59009;BME280;44794;42.652;23.318;2022-09-09T03:00:43;94712.94;;;15.42;88.83
59009;BME280;44794;42.652;23.318;2022-09-09T03:03:09;94718.59;;;15.37;88.93
59009;BME280;44794;42.652;23.318;2022-09-09T03:05:35;94715.84;;;15.39;89.09
59009;BME280;44794;42.652;23.318;2022-09-09T03:08:03;94714.47;;;15.35;89.50
59009;BME280;44794;42.652;23.318;2022-09-09T03:10:29;94718.88;;;15.34;89.23
59009;BME280;44794;42.652;23.318;2022-09-09T03:12:54;94722.75;;;15.40;89.37
59009;BME280;44794;42.652;23.318;2022-09-09T03:15:21;94727.44;;;15.46;88.73
59009;BME280;44794;42.652;23.318;2022-09-09T03:17:46;94726.88;;;15.52;88.55
59009;BME280;44794;42.652;23.318;2022-09-09T03:20:12;94732.81;;;15.54;88.07
59009;BME280;44794;42.652;23.318;2022-09-09T03:22:37;94727.84;;;15.51;87.86
59009;BME280;44794;42.652;23.318;2022-09-09T03:25:03;94728.09;;;15.48;88.07
59009;BME280;44794;42.652;23.318;2022-09-09T03:27:29;94719.84;;;15.43;87.81
59009;BME280;44794;42.652;23.318;2022-09-09T03:29:55;94724.66;;;15.38;87.90
59009;BME280;44794;42.652;23.318;2022-09-09T03:32:21;94726.03;;;15.32;88.25
59009;BME280;44794;42.652;23.318;2022-09-09T03:34:48;94719.44;;;15.28;88.67
59009;BME280;44794;42.652;23.318;2022-09-09T03:37:15;94722.31;;;15.25;88.62
59009;BME280;44794;42.652;23.318;2022-09-09T03:39:42;94715.81;;;15.20;89.07
59009;BME280;44794;42.652;23.318;2022-09-09T03:42:08;94722.28;;;15.16;88.99
59009;BME280;44794;42.652;23.318;2022-09-09T03:44:34;94715.66;;;15.12;89.63
59009;BME280;44794;42.652;23.318;2022-09-09T03:46:59;94710.72;;;15.09;89.61
59009;BME280;44794;42.652;23.318;2022-09-09T03:49:28;94709.47;;;15.03;89.70
59009;BME280;44794;42.652;23.318;2022-09-09T03:51:55;94709.88;;;14.99;90.06
59009;BME280;44794;42.652;23.318;2022-09-09T03:54:22;94716.34;;;14.95;90.36
59009;BME280;44794;42.652;23.318;2022-09-09T03:56:47;94713.19;;;14.92;90.57
59009;BME280;44794;42.652;23.318;2022-09-09T03:59:13;94714.28;;;14.89;90.57
59009;BME280;44794;42.652;23.318;2022-09-09T04:01:39;94715.25;;;14.88;90.60
59009;BME280;44794;42.652;23.318;2022-09-09T04:04:05;94725.97;;;14.85;90.89
59009;BME280;44794;42.652;23.318;2022-09-09T04:06:30;94723.09;;;14.88;91.28
59009;BME280;44794;42.652;23.318;2022-09-09T04:08:55;94724.47;;;14.92;90.92
59009;BME280;44794;42.652;23.318;2022-09-09T04:11:21;94716.91;;;14.89;91.08
59009;BME280;44794;42.652;23.318;2022-09-09T04:13:47;94727.63;;;14.96;90.86
59009;BME280;44794;42.652;23.318;2022-09-09T04:16:13;94721.59;;;14.95;90.74
59009;BME280;44794;42.652;23.318;2022-09-09T04:18:39;94724.59;;;15.00;90.30
59009;BME280;44794;42.652;23.318;2022-09-09T04:21:05;94712.09;;;15.03;90.39
59009;BME280;44794;42.652;23.318;2022-09-09T04:23:32;94725.56;;;15.08;90.25
59009;BME280;44794;42.652;23.318;2022-09-09T04:26:00;94725.06;;;15.14;90.11
59009;BME280;44794;42.652;23.318;2022-09-09T04:28:28;94731.38;;;15.21;89.92
59009;BME280;44794;42.652;23.318;2022-09-09T04:30:54;94728.09;;;15.29;89.69
59009;BME280;44794;42.652;23.318;2022-09-09T04:33:20;94730.16;;;15.35;89.39
59009;BME280;44794;42.652;23.318;2022-09-09T04:35:48;94734.59;;;15.44;88.75
59009;BME280;44794;42.652;23.318;2022-09-09T04:38:15;94733.47;;;15.56;88.17
59009;BME280;44794;42.652;23.318;2022-09-09T04:40:46;94742.28;;;15.64;87.64
59009;BME280;44794;42.652;23.318;2022-09-09T04:43:12;94751.09;;;15.73;87.11
59009;BME280;44794;42.652;23.318;2022-09-09T04:45:39;94762.25;;;15.84;86.47
59009;BME280;44794;42.652;23.318;2022-09-09T04:48:06;94755.06;;;15.95;85.74
59009;BME280;44794;42.652;23.318;2022-09-09T04:50:31;94749.38;;;16.00;86.04
59009;BME280;44794;42.652;23.318;2022-09-09T04:53:00;94732.00;;;16.08;85.76
59009;BME280;44794;42.652;23.318;2022-09-09T04:55:26;94726.72;;;16.18;85.86
59009;BME280;44794;42.652;23.318;2022-09-09T04:57:51;94728.06;;;16.31;85.52
59009;BME280;44794;42.652;23.318;2022-09-09T05:00:16;94727.59;;;16.45;84.54
59009;BME280;44794;42.652;23.318;2022-09-09T05:02:42;94729.94;;;16.48;84.25
59009;BME280;44794;42.652;23.318;2022-09-09T05:05:08;94737.06;;;16.65;83.18
59009;BME280;44794;42.652;23.318;2022-09-09T05:07:33;94727.59;;;16.81;81.73
59009;BME280;44794;42.652;23.318;2022-09-09T05:09:59;94705.41;;;16.93;81.07
59009;BME280;44794;42.652;23.318;2022-09-09T05:12:25;94716.44;;;17.14;80.90
59009;BME280;44794;42.652;23.318;2022-09-09T05:14:53;94720.41;;;17.28;79.96
59009;BME280;44794;42.652;23.318;2022-09-09T05:17:18;94737.31;;;17.50;78.42
59009;BME280;44794;42.652;23.318;2022-09-09T05:19:44;94734.41;;;17.53;77.31
59009;BME280;44794;42.652;23.318;2022-09-09T05:22:10;94736.06;;;17.72;76.51
59009;BME280;44794;42.652;23.318;2022-09-09T05:24:37;94727.75;;;17.84;75.87
59009;BME280;44794;42.652;23.318;2022-09-09T05:27:03;94723.41;;;17.93;75.25
59009;BME280;44794;42.652;23.318;2022-09-09T05:29:29;94730.91;;;18.13;75.18
59009;BME280;44794;42.652;23.318;2022-09-09T05:31:54;94734.66;;;18.28;74.42
59009;BME280;44794;42.652;23.318;2022-09-09T05:34:20;94736.78;;;18.50;73.94
59009;BME280;44794;42.652;23.318;2022-09-09T05:36:46;94741.81;;;18.77;71.55
59009;BME280;44794;42.652;23.318;2022-09-09T05:39:12;94736.97;;;19.47;69.48
59009;BME280;44794;42.652;23.318;2022-09-09T05:41:37;94739.50;;;19.96;66.82
59009;BME280;44794;42.652;23.318;2022-09-09T05:44:03;94747.59;;;21.57;61.67
59009;BME280;44794;42.652;23.318;2022-09-09T05:46:28;94749.47;;;23.24;55.66
59009;BME280;44794;42.652;23.318;2022-09-09T05:48:54;94769.16;;;24.97;51.26
59009;BME280;44794;42.652;23.318;2022-09-09T05:51:22;94775.44;;;26.23;46.64
59009;BME280;44794;42.652;23.318;2022-09-09T05:53:48;94770.97;;;27.07;44.06
59009;BME280;44794;42.652;23.318;2022-09-09T05:56:19;94762.78;;;28.46;41.44
59009;BME280;44794;42.652;23.318;2022-09-09T05:58:45;94766.88;;;29.75;38.60
59009;BME280;44794;42.652;23.318;2022-09-09T06:01:32;94773.63;;;30.84;35.88
59009;BME280;44794;42.652;23.318;2022-09-09T06:03:58;94774.25;;;30.27;35.88
59009;BME280;44794;42.652;23.318;2022-09-09T06:06:26;94785.84;;;30.10;36.10
59009;BME280;44794;42.652;23.318;2022-09-09T06:08:53;94785.91;;;29.32;37.84
59009;BME280;44794;42.652;23.318;2022-09-09T06:11:21;94788.47;;;30.46;36.04
59009;BME280;44794;42.652;23.318;2022-09-09T06:13:47;94795.81;;;31.82;33.29
59009;BME280;44794;42.652;23.318;2022-09-09T06:16:15;94792.19;;;32.99;31.35
59009;BME280;44794;42.652;23.318;2022-09-09T06:18:41;94793.06;;;33.54;30.38
59009;BME280;44794;42.652;23.318;2022-09-09T06:21:20;94789.69;;;34.23;29.34
59009;BME280;44794;42.652;23.318;2022-09-09T06:23:46;94792.94;;;33.44;29.20
59009;BME280;44794;42.652;23.318;2022-09-09T06:26:22;94789.66;;;30.32;34.48
59009;BME280;44794;42.652;23.318;2022-09-09T06:28:50;94790.84;;;32.69;31.21
59009;BME280;44794;42.652;23.318;2022-09-09T06:31:17;94795.94;;;33.64;29.36
59009;BME280;44794;42.652;23.318;2022-09-09T06:33:47;94797.19;;;34.63;28.11
59009;BME280;44794;42.652;23.318;2022-09-09T06:36:16;94784.59;;;35.31;27.02
59009;BME280;44794;42.652;23.318;2022-09-09T06:38:42;94782.69;;;35.63;26.58
59009;BME280;44794;42.652;23.318;2022-09-09T06:41:09;94777.13;;;34.07;27.85
59009;BME280;44794;42.652;23.318;2022-09-09T06:43:35;94772.84;;;32.14;30.58
59009;BME280;44794;42.652;23.318;2022-09-09T06:46:05;94768.19;;;31.36;32.00
59009;BME280;44794;42.652;23.318;2022-09-09T06:48:31;94767.19;;;29.85;34.40
59009;BME280;44794;42.652;23.318;2022-09-09T06:51:06;94776.25;;;28.33;37.56
59009;BME280;44794;42.652;23.318;2022-09-09T06:53:33;94778.53;;;27.86;38.81
59009;BME280;44794;42.652;23.318;2022-09-09T06:56:00;94780.50;;;27.47;39.68
59009;BME280;44794;42.652;23.318;2022-09-09T06:58:27;94782.66;;;26.48;41.17
59009;BME280;44794;42.652;23.318;2022-09-09T07:01:04;94784.63;;;26.01;42.21
59009;BME280;44794;42.652;23.318;2022-09-09T07:03:30;94774.56;;;25.43;44.08
59009;BME280;44794;42.652;23.318;2022-09-09T07:05:56;94784.56;;;24.32;46.85
59009;BME280;44794;42.652;23.318;2022-09-09T07:08:22;94778.69;;;23.95;47.97
59009;BME280;44794;42.652;23.318;2022-09-09T07:10:48;94777.69;;;23.60;49.01
59009;BME280;44794;42.652;23.318;2022-09-09T07:13:14;94773.94;;;23.55;49.51
59009;BME280;44794;42.652;23.318;2022-09-09T07:15:41;94768.72;;;23.61;49.96
59009;BME280;44794;42.652;23.318;2022-09-09T07:18:07;94770.81;;;24.01;48.79
59009;BME280;44794;42.652;23.318;2022-09-09T07:20:35;94773.69;;;24.27;47.86
59009;BME280;44794;42.652;23.318;2022-09-09T07:23:00;94771.13;;;24.33;47.98
59009;BME280;44794;42.652;23.318;2022-09-09T07:25:25;94765.50;;;24.01;48.79
59009;BME280;44794;42.652;23.318;2022-09-09T07:27:54;94759.44;;;23.86;49.42
59009;BME280;44794;42.652;23.318;2022-09-09T07:30:20;94768.41;;;24.06;48.91
59009;BME280;44794;42.652;23.318;2022-09-09T07:32:46;94758.41;;;24.29;48.36
59009;BME280;44794;42.652;23.318;2022-09-09T07:35:12;94757.28;;;24.38;48.66
59009;BME280;44794;42.652;23.318;2022-09-09T07:37:37;94744.59;;;24.40;48.72
59009;BME280;44794;42.652;23.318;2022-09-09T07:40:03;94753.75;;;24.52;48.57
59009;BME280;44794;42.652;23.318;2022-09-09T07:42:30;94762.38;;;24.60;47.67
59009;BME280;44794;42.652;23.318;2022-09-09T07:44:55;94760.78;;;24.66;47.73
59009;BME280;44794;42.652;23.318;2022-09-09T07:47:21;94763.84;;;24.42;48.30
59009;BME280;44794;42.652;23.318;2022-09-09T07:49:47;94775.22;;;24.36;47.99
59009;BME280;44794;42.652;23.318;2022-09-09T07:52:15;94768.34;;;24.21;48.50
59009;BME280;44794;42.652;23.318;2022-09-09T07:54:40;94773.81;;;24.19;49.19
59009;BME280;44794;42.652;23.318;2022-09-09T07:57:07;94768.38;;;24.27;48.85
59009;BME280;44794;42.652;23.318;2022-09-09T07:59:32;94761.53;;;24.60;48.75
59009;BME280;44794;42.652;23.318;2022-09-09T08:01:58;94757.28;;;24.93;47.78
59009;BME280;44794;42.652;23.318;2022-09-09T08:04:25;94758.94;;;25.00;46.57
59009;BME280;44794;42.652;23.318;2022-09-09T08:07:00;94763.63;;;24.92;47.36
59009;BME280;44794;42.652;23.318;2022-09-09T08:09:27;94767.28;;;24.91;46.84
59009;BME280;44794;42.652;23.318;2022-09-09T08:11:54;94762.53;;;24.80;46.91
59009;BME280;44794;42.652;23.318;2022-09-09T08:14:22;94762.53;;;24.86;46.76
59009;BME280;44794;42.652;23.318;2022-09-09T08:16:49;94764.00;;;25.16;45.93
59009;BME280;44794;42.652;23.318;2022-09-09T08:19:16;94763.09;;;25.43;45.32
59009;BME280;44794;42.652;23.318;2022-09-09T08:21:44;94754.91;;;25.44;45.22
59009;BME280;44794;42.652;23.318;2022-09-09T08:24:11;94757.41;;;25.99;44.44
59009;BME280;44794;42.652;23.318;2022-09-09T08:26:39;94766.03;;;26.20;44.40
59009;BME280;44794;42.652;23.318;2022-09-09T08:29:07;94765.00;;;26.28;43.42
59009;BME280;44794;42.652;23.318;2022-09-09T08:31:38;94756.78;;;26.10;43.96
59009;BME280;44794;42.652;23.318;2022-09-09T08:34:04;94760.28;;;26.30;42.52
59009;BME280;44794;42.652;23.318;2022-09-09T08:36:34;94750.50;;;26.56;42.08
59009;BME280;44794;42.652;23.318;2022-09-09T08:39:00;94758.66;;;26.93;41.37
59009;BME280;44794;42.652;23.318;2022-09-09T08:44:36;94764.63;;;27.71;39.82
59009;BME280;44794;42.652;23.318;2022-09-09T08:57:53;94756.94;;;27.94;39.53
59009;BME280;44794;42.652;23.318;2022-09-09T09:00:20;94759.03;;;28.16;38.61
59009;BME280;44794;42.652;23.318;2022-09-09T09:03:03;94757.56;;;27.90;38.64
59009;BME280;44794;42.652;23.318;2022-09-09T09:05:37;94752.69;;;27.80;38.89
59009;BME280;44794;42.652;23.318;2022-09-09T09:08:17;94752.97;;;27.66;38.92
59009;BME280;44794;42.652;23.318;2022-09-09T09:10:50;94758.41;;;27.84;38.99
59009;BME280;44794;42.652;23.318;2022-09-09T09:13:35;94760.78;;;27.54;39.08
59009;BME280;44794;42.652;23.318;2022-09-09T09:16:14;94758.97;;;27.92;38.96
59009;BME280;44794;42.652;23.318;2022-09-09T09:18:43;94754.19;;;28.07;38.55
59009;BME280;44794;42.652;23.318;2022-09-09T09:21:44;94751.47;;;28.44;38.40
59009;BME280;44794;42.652;23.318;2022-09-09T09:24:20;94752.84;;;28.53;36.96
59009;BME280;44794;42.652;23.318;2022-09-09T09:26:47;94752.16;;;28.89;36.75
59009;BME280;44794;42.652;23.318;2022-09-09T09:29:16;94751.22;;;29.01;37.19
59009;BME280;44794;42.652;23.318;2022-09-09T09:31:45;94757.50;;;29.31;36.59
59009;BME280;44794;42.652;23.318;2022-09-09T09:34:13;94759.00;;;29.63;35.29
59009;BME280;44794;42.652;23.318;2022-09-09T09:36:44;94753.78;;;29.85;36.15
59009;BME280;44794;42.652;23.318;2022-09-09T09:39:25;94745.66;;;29.45;36.28
59009;BME280;44794;42.652;23.318;2022-09-09T09:41:51;94748.66;;;30.02;35.31
59009;BME280;44794;42.652;23.318;2022-09-09T09:46:48;94735.50;;;30.41;34.75
59009;BME280;44794;42.652;23.318;2022-09-09T09:49:13;94731.81;;;30.24;34.50
59009;BME280;44794;42.652;23.318;2022-09-09T09:51:39;94726.09;;;30.21;34.72
59009;BME280;44794;42.652;23.318;2022-09-09T09:54:16;94734.28;;;29.96;34.43
59009;BME280;44794;42.652;23.318;2022-09-09T09:56:44;94728.03;;;29.84;34.34
59009;BME280;44794;42.652;23.318;2022-09-09T09:59:39;94721.31;;;29.64;34.96
59009;BME280;44794;42.652;23.318;2022-09-09T10:02:20;94715.97;;;29.28;35.38
59009;BME280;44794;42.652;23.318;2022-09-09T10:05:00;94721.63;;;29.38;35.69
59009;BME280;44794;42.652;23.318;2022-09-09T10:07:26;94722.72;;;29.67;34.82
59009;BME280;44794;42.652;23.318;2022-09-09T10:09:56;94719.16;;;29.19;35.72
59009;BME280;44794;42.652;23.318;2022-09-09T10:13:01;94731.06;;;29.41;35.52
59009;BME280;44794;42.652;23.318;2022-09-09T10:18:16;94728.41;;;28.81;36.91
59009;BME280;44794;42.652;23.318;2022-09-09T10:21:28;94728.81;;;28.22;38.02
59009;BME280;44794;42.652;23.318;2022-09-09T10:32:22;94734.34;;;27.46;39.32
59009;BME280;44794;42.652;23.318;2022-09-09T10:40:34;94726.69;;;27.63;39.89
59009;BME280;44794;42.652;23.318;2022-09-09T11:03:00;94731.13;;;28.43;39.08
59009;BME280;44794;42.652;23.318;2022-09-09T11:05:40;94731.75;;;28.14;39.59
59009;BME280;44794;42.652;23.318;2022-09-09T11:08:21;94734.41;;;28.14;39.89
59009;BME280;44794;42.652;23.318;2022-09-09T11:16:24;94731.84;;;28.32;40.12
59009;BME280;44794;42.652;23.318;2022-09-09T11:18:58;94723.28;;;28.17;40.75
59009;BME280;44794;42.652;23.318;2022-09-09T11:21:32;94716.75;;;28.44;39.36
59009;BME280;44794;42.652;23.318;2022-09-09T11:24:09;94712.78;;;28.71;39.62
59009;BME280;44794;42.652;23.318;2022-09-09T11:26:52;94715.13;;;29.10;38.18
59009;BME280;44794;42.652;23.318;2022-09-09T11:29:43;94714.91;;;28.69;38.66
59009;BME280;44794;42.652;23.318;2022-09-09T11:38:24;94678.91;;;28.90;38.91
59009;BME280;44794;42.652;23.318;2022-09-09T11:41:02;94686.78;;;29.02;38.82
59009;BME280;44794;42.652;23.318;2022-09-09T11:43:37;94678.53;;;28.62;39.34
59009;BME280;44794;42.652;23.318;2022-09-09T11:46:05;94671.19;;;28.57;40.33
59009;BME280;44794;42.652;23.318;2022-09-09T11:51:06;94635.91;;;28.49;39.66
59009;BME280;44794;42.652;23.318;2022-09-09T11:53:34;94629.38;;;28.45;40.55
59009;BME280;44794;42.652;23.318;2022-09-09T11:56:04;94632.91;;;28.63;40.74
59009;BME280;44794;42.652;23.318;2022-09-09T11:58:38;94630.81;;;28.65;40.96
59009;BME280;44794;42.652;23.318;2022-09-09T12:01:27;94638.44;;;28.44;41.13
59009;BME280;44794;42.652;23.318;2022-09-09T12:04:17;94641.19;;;28.55;40.32
59009;BME280;44794;42.652;23.318;2022-09-09T12:06:46;94643.47;;;28.76;40.50
59009;BME280;44794;42.652;23.318;2022-09-09T12:09:25;94644.50;;;28.75;40.23
59009;BME280;44794;42.652;23.318;2022-09-09T12:11:52;94633.28;;;28.67;40.69
59009;BME280;44794;42.652;23.318;2022-09-09T12:14:22;94631.31;;;28.98;40.46
59009;BME280;44794;42.652;23.318;2022-09-09T12:16:48;94623.44;;;29.39;40.14
59009;BME280;44794;42.652;23.318;2022-09-09T12:19:18;94634.88;;;29.46;39.45
59009;BME280;44794;42.652;23.318;2022-09-09T12:30:16;94620.84;;;28.72;40.87
59009;BME280;44794;42.652;23.318;2022-09-09T12:32:42;94612.88;;;28.90;41.00
59009;BME280;44794;42.652;23.318;2022-09-09T12:35:11;94605.00;;;28.95;40.63
59009;BME280;44794;42.652;23.318;2022-09-09T12:37:38;94600.81;;;28.99;40.99
59009;BME280;44794;42.652;23.318;2022-09-09T12:40:26;94601.00;;;29.04;41.04
59009;BME280;44794;42.652;23.318;2022-09-09T12:42:52;94596.69;;;29.03;40.27
59009;BME280;44794;42.652;23.318;2022-09-09T12:45:23;94598.84;;;28.94;40.85
59009;BME280;44794;42.652;23.318;2022-09-09T12:50:30;94594.25;;;29.01;40.94
59009;BME280;44794;42.652;23.318;2022-09-09T12:52:58;94593.44;;;29.30;40.69
59009;BME280;44794;42.652;23.318;2022-09-09T12:55:28;94603.34;;;29.59;39.98
59009;BME280;44794;42.652;23.318;2022-09-09T12:57:56;94589.34;;;29.86;39.26
59009;BME280;44794;42.652;23.318;2022-09-09T13:00:23;94564.88;;;29.71;39.80
59009;BME280;44794;42.652;23.318;2022-09-09T13:05:18;94572.72;;;29.26;39.93
59009;BME280;44794;42.652;23.318;2022-09-09T13:07:45;94580.28;;;29.47;39.78
59009;BME280;44794;42.652;23.318;2022-09-09T13:10:13;94582.63;;;29.55;39.43
59009;BME280;44794;42.652;23.318;2022-09-09T13:12:40;94573.75;;;29.43;39.92
59009;BME280;44794;42.652;23.318;2022-09-09T13:15:14;94565.25;;;29.46;40.17
59009;BME280;44794;42.652;23.318;2022-09-09T13:17:42;94567.16;;;29.57;39.97
59009;BME280;44794;42.652;23.318;2022-09-09T13:20:17;94566.91;;;29.29;40.41
59009;BME280;44794;42.652;23.318;2022-09-09T13:22:43;94572.19;;;29.65;40.07
59009;BME280;44794;42.652;23.318;2022-09-09T13:27:51;94562.16;;;29.31;39.87
59009;BME280;44794;42.652;23.318;2022-09-09T13:30:25;94538.31;;;28.82;42.12
59009;BME280;44794;42.652;23.318;2022-09-09T13:33:05;94527.53;;;28.11;43.77
59009;BME280;44794;42.652;23.318;2022-09-09T13:35:31;94540.47;;;27.65;44.38
59009;BME280;44794;42.652;23.318;2022-09-09T13:37:58;94538.84;;;27.64;44.37
59009;BME280;44794;42.652;23.318;2022-09-09T13:40:25;94547.50;;;27.53;45.79
59009;BME280;44794;42.652;23.318;2022-09-09T13:42:57;94540.28;;;27.84;44.87
59009;BME280;44794;42.652;23.318;2022-09-09T13:45:25;94537.19;;;28.12;44.60
59009;BME280;44794;42.652;23.318;2022-09-09T13:47:55;94523.06;;;28.05;44.14
59009;BME280;44794;42.652;23.318;2022-09-09T13:50:23;94525.75;;;28.05;44.37
59009;BME280;44794;42.652;23.318;2022-09-09T13:52:56;94520.41;;;28.05;43.62
59009;BME280;44794;42.652;23.318;2022-09-09T13:55:27;94526.25;;;27.95;43.88
59009;BME280;44794;42.652;23.318;2022-09-09T13:57:54;94531.38;;;27.72;44.63
59009;BME280;44794;42.652;23.318;2022-09-09T14:00:20;94531.81;;;27.69;44.75
59009;BME280;44794;42.652;23.318;2022-09-09T14:02:47;94538.63;;;27.65;44.74
59009;BME280;44794;42.652;23.318;2022-09-09T14:05:22;94525.72;;;27.56;45.21
59009;BME280;44794;42.652;23.318;2022-09-09T14:07:49;94520.00;;;27.52;44.87
59009;BME280;44794;42.652;23.318;2022-09-09T14:10:15;94530.84;;;27.57;44.81
59009;BME280;44794;42.652;23.318;2022-09-09T14:12:40;94519.06;;;27.71;45.43
59009;BME280;44794;42.652;23.318;2022-09-09T14:15:07;94524.84;;;27.93;44.64
59009;BME280;44794;42.652;23.318;2022-09-09T14:17:34;94524.09;;;28.04;44.29
59009;BME280;44794;42.652;23.318;2022-09-09T14:20:05;94517.25;;;27.90;43.74
59009;BME280;44794;42.652;23.318;2022-09-09T14:22:34;94518.75;;;27.86;44.38
59009;BME280;44794;42.652;23.318;2022-09-09T14:25:01;94510.72;;;27.61;44.50
59009;BME280;44794;42.652;23.318;2022-09-09T14:27:26;94513.47;;;27.48;45.18
59009;BME280;44794;42.652;23.318;2022-09-09T14:29:52;94508.22;;;27.35;45.14
59009;BME280;44794;42.652;23.318;2022-09-09T14:32:18;94516.34;;;27.47;44.91
59009;BME280;44794;42.652;23.318;2022-09-09T14:34:43;94517.91;;;27.61;44.80
59009;BME280;44794;42.652;23.318;2022-09-09T14:37:09;94525.91;;;27.61;44.31
59009;BME280;44794;42.652;23.318;2022-09-09T14:39:34;94525.72;;;27.62;43.84
59009;BME280;44794;42.652;23.318;2022-09-09T14:42:00;94515.03;;;27.56;44.01
59009;BME280;44794;42.652;23.318;2022-09-09T14:44:25;94513.09;;;27.45;44.23
59009;BME280;44794;42.652;23.318;2022-09-09T14:46:51;94515.34;;;27.17;45.20
59009;BME280;44794;42.652;23.318;2022-09-09T14:49:16;94505.47;;;26.80;46.18
59009;BME280;44794;42.652;23.318;2022-09-09T14:51:42;94502.63;;;26.75;46.59
59009;BME280;44794;42.652;23.318;2022-09-09T14:54:07;94497.53;;;26.67;45.81
59009;BME280;44794;42.652;23.318;2022-09-09T14:56:34;94503.94;;;26.54;46.63
59009;BME280;44794;42.652;23.318;2022-09-09T14:59:00;94503.19;;;26.34;47.07
59009;BME280;44794;42.652;23.318;2022-09-09T15:01:26;94513.63;;;26.29;47.75
59009;BME280;44794;42.652;23.318;2022-09-09T15:03:54;94508.50;;;26.21;48.39
59009;BME280;44794;42.652;23.318;2022-09-09T15:06:21;94518.19;;;26.15;48.08